sensor_id;sensor_type;location;lat;lon;timestamp;pressure;altitude;pressure_sealevel;temperature
70050;BMP180;57391;51.306;22.680;2023-11-19T00:01:49;100234.80;;;3.00
70050;BMP180;57391;51.306;22.680;2023-11-19T00:04:38;100238.60;;;3.00
70050;BMP180;57391;51.306;22.680;2023-11-19T00:07:26;100238.80;;;3.02
70050;BMP180;57391;51.306;22.680;2023-11-19T00:10:14;100242.80;;;3.02
70050;BMP180;57391;51.306;22.680;2023-11-19T00:13:03;100241.00;;;3.00
70050;BMP180;57391;51.306;22.680;2023-11-19T00:15:49;100235.80;;;3.00
70050;BMP180;57391;51.306;22.680;2023-11-19T00:18:35;100231.20;;;3.00
70050;BMP180;57391;51.306;22.680;2023-11-19T00:21:21;100224.40;;;3.00
70050;BMP180;57391;51.306;22.680;2023-11-19T00:24:07;100207.40;;;3.00
70050;BMP180;57391;51.306;22.680;2023-11-19T00:26:53;100192.00;;;3.00
70050;BMP180;57391;51.306;22.680;2023-11-19T00:29:39;100190.20;;;3.00
70050;BMP180;57391;51.306;22.680;2023-11-19T00:32:25;100185.40;;;2.96
70050;BMP180;57391;51.306;22.680;2023-11-19T00:35:11;100180.80;;;2.90
70050;BMP180;57391;51.306;22.680;2023-11-19T00:37:59;100177.00;;;3.00
70050;BMP180;57391;51.306;22.680;2023-11-19T00:40:45;100170.80;;;3.00
70050;BMP180;57391;51.306;22.680;2023-11-19T00:43:31;100167.20;;;2.98
70050;BMP180;57391;51.306;22.680;2023-11-19T00:46:16;100168.20;;;2.98
70050;BMP180;57391;51.306;22.680;2023-11-19T00:49:02;100167.80;;;2.90
70050;BMP180;57391;51.306;22.680;2023-11-19T00:51:48;100166.00;;;2.90
70050;BMP180;57391;51.306;22.680;2023-11-19T00:54:34;100157.60;;;2.88
70050;BMP180;57391;51.306;22.680;2023-11-19T00:57:20;100150.40;;;2.80
70050;BMP180;57391;51.306;22.680;2023-11-19T01:00:06;100149.40;;;2.80
70050;BMP180;57391;51.306;22.680;2023-11-19T01:03:03;100150.60;;;2.70
70050;BMP180;57391;51.306;22.680;2023-11-19T01:05:49;100153.20;;;2.70
70050;BMP180;57391;51.306;22.680;2023-11-19T01:08:34;100141.20;;;2.64
70050;BMP180;57391;51.306;22.680;2023-11-19T01:11:21;100132.00;;;2.54
70050;BMP180;57391;51.306;22.680;2023-11-19T01:14:07;100135.80;;;2.50
70050;BMP180;57391;51.306;22.680;2023-11-19T01:16:52;100136.40;;;2.44
70050;BMP180;57391;51.306;22.680;2023-11-19T01:19:39;100126.40;;;2.50
70050;BMP180;57391;51.306;22.680;2023-11-19T01:22:25;100127.40;;;2.50
70050;BMP180;57391;51.306;22.680;2023-11-19T01:25:11;100128.00;;;2.50
70050;BMP180;57391;51.306;22.680;2023-11-19T01:27:56;100128.00;;;2.50
70050;BMP180;57391;51.306;22.680;2023-11-19T01:33:21;100121.20;;;2.60
70050;BMP180;57391;51.306;22.680;2023-11-19T01:36:07;100111.20;;;2.60
70050;BMP180;57391;51.306;22.680;2023-11-19T01:38:53;100116.40;;;2.60
70050;BMP180;57391;51.306;22.680;2023-11-19T01:41:39;100114.60;;;2.64
70050;BMP180;57391;51.306;22.680;2023-11-19T01:44:25;100114.20;;;2.68
70050;BMP180;57391;51.306;22.680;2023-11-19T01:47:10;100118.00;;;2.70
70050;BMP180;57391;51.306;22.680;2023-11-19T01:49:56;100120.40;;;2.70
70050;BMP180;57391;51.306;22.680;2023-11-19T01:52:43;100121.80;;;2.70
70050;BMP180;57391;51.306;22.680;2023-11-19T01:55:29;100116.00;;;2.70
70050;BMP180;57391;51.306;22.680;2023-11-19T01:58:16;100106.00;;;2.72
70050;BMP180;57391;51.306;22.680;2023-11-19T02:01:02;100098.20;;;2.70
70050;BMP180;57391;51.306;22.680;2023-11-19T02:03:49;100090.40;;;2.70
70050;BMP180;57391;51.306;22.680;2023-11-19T02:06:39;100091.40;;;2.70
70050;BMP180;57391;51.306;22.680;2023-11-19T02:09:26;100090.00;;;2.70
70050;BMP180;57391;51.306;22.680;2023-11-19T02:12:12;100076.20;;;2.64
70050;BMP180;57391;51.306;22.680;2023-11-19T02:14:58;100067.40;;;2.60
70050;BMP180;57391;51.306;22.680;2023-11-19T02:17:44;100071.00;;;2.60
70050;BMP180;57391;51.306;22.680;2023-11-19T02:20:30;100074.60;;;2.60
70050;BMP180;57391;51.306;22.680;2023-11-19T02:23:17;100078.60;;;2.60
70050;BMP180;57391;51.306;22.680;2023-11-19T02:26:16;100068.60;;;2.60
70050;BMP180;57391;51.306;22.680;2023-11-19T02:29:04;100065.60;;;2.60
70050;BMP180;57391;51.306;22.680;2023-11-19T02:31:51;100063.00;;;2.66
70050;BMP180;57391;51.306;22.680;2023-11-19T02:34:38;100056.00;;;2.70
70050;BMP180;57391;51.306;22.680;2023-11-19T02:37:23;100045.60;;;2.70
70050;BMP180;57391;51.306;22.680;2023-11-19T02:40:09;100044.60;;;2.70
70050;BMP180;57391;51.306;22.680;2023-11-19T02:42:55;100047.60;;;2.70
70050;BMP180;57391;51.306;22.680;2023-11-19T02:45:41;100045.40;;;2.70
70050;BMP180;57391;51.306;22.680;2023-11-19T02:48:30;100031.80;;;2.70
70050;BMP180;57391;51.306;22.680;2023-11-19T02:51:16;100027.80;;;2.68
70050;BMP180;57391;51.306;22.680;2023-11-19T02:54:04;100024.00;;;2.70
70050;BMP180;57391;51.306;22.680;2023-11-19T02:56:50;100020.80;;;2.70
70050;BMP180;57391;51.306;22.680;2023-11-19T02:59:41;100018.80;;;2.70
70050;BMP180;57391;51.306;22.680;2023-11-19T03:02:28;100013.20;;;2.70
70050;BMP180;57391;51.306;22.680;2023-11-19T03:05:19;100009.20;;;2.72
70050;BMP180;57391;51.306;22.680;2023-11-19T03:08:04;100007.00;;;2.80
70050;BMP180;57391;51.306;22.680;2023-11-19T03:10:50;100008.80;;;2.80
70050;BMP180;57391;51.306;22.680;2023-11-19T03:13:36;100008.80;;;2.78
70050;BMP180;57391;51.306;22.680;2023-11-19T03:16:21;100015.80;;;2.80
70050;BMP180;57391;51.306;22.680;2023-11-19T03:19:07;100016.00;;;2.80
70050;BMP180;57391;51.306;22.680;2023-11-19T03:21:53;100014.20;;;2.80
70050;BMP180;57391;51.306;22.680;2023-11-19T03:24:39;100007.20;;;2.80
70050;BMP180;57391;51.306;22.680;2023-11-19T03:27:25;100005.00;;;2.80
70050;BMP180;57391;51.306;22.680;2023-11-19T03:30:11;100009.00;;;2.82
70050;BMP180;57391;51.306;22.680;2023-11-19T03:32:57;100008.40;;;2.80
70050;BMP180;57391;51.306;22.680;2023-11-19T03:35:43;100006.80;;;2.80
70050;BMP180;57391;51.306;22.680;2023-11-19T03:38:29;99998.20;;;2.82
70050;BMP180;57391;51.306;22.680;2023-11-19T03:41:15;99988.60;;;2.80
70050;BMP180;57391;51.306;22.680;2023-11-19T03:44:02;99981.20;;;2.82
70050;BMP180;57391;51.306;22.680;2023-11-19T03:46:48;99974.20;;;2.80
70050;BMP180;57391;51.306;22.680;2023-11-19T03:49:34;99973.60;;;2.86
70050;BMP180;57391;51.306;22.680;2023-11-19T03:52:20;99966.40;;;2.88
70050;BMP180;57391;51.306;22.680;2023-11-19T03:55:06;99957.20;;;2.90
70050;BMP180;57391;51.306;22.680;2023-11-19T03:57:54;99955.00;;;2.90
70050;BMP180;57391;51.306;22.680;2023-11-19T04:00:39;99948.80;;;2.90
70050;BMP180;57391;51.306;22.680;2023-11-19T04:03:26;99946.60;;;2.90
70050;BMP180;57391;51.306;22.680;2023-11-19T04:06:13;99949.20;;;2.90
70050;BMP180;57391;51.306;22.680;2023-11-19T04:08:59;99942.80;;;2.90
70050;BMP180;57391;51.306;22.680;2023-11-19T04:11:45;99941.20;;;2.90
70050;BMP180;57391;51.306;22.680;2023-11-19T04:14:32;99941.00;;;2.90
70050;BMP180;57391;51.306;22.680;2023-11-19T04:17:17;99937.00;;;2.90
70050;BMP180;57391;51.306;22.680;2023-11-19T04:20:04;99940.20;;;2.90
70050;BMP180;57391;51.306;22.680;2023-11-19T04:22:51;99938.60;;;2.90
70050;BMP180;57391;51.306;22.680;2023-11-19T04:25:36;99936.60;;;2.90
70050;BMP180;57391;51.306;22.680;2023-11-19T04:28:22;99933.80;;;2.86
70050;BMP180;57391;51.306;22.680;2023-11-19T04:31:08;99933.60;;;2.80
70050;BMP180;57391;51.306;22.680;2023-11-19T04:33:55;99933.80;;;2.80
70050;BMP180;57391;51.306;22.680;2023-11-19T04:36:41;99940.60;;;2.80
70050;BMP180;57391;51.306;22.680;2023-11-19T04:39:26;99940.60;;;2.80
70050;BMP180;57391;51.306;22.680;2023-11-19T04:42:12;99942.20;;;2.80
70050;BMP180;57391;51.306;22.680;2023-11-19T04:44:58;99939.40;;;2.80
70050;BMP180;57391;51.306;22.680;2023-11-19T04:47:44;99936.80;;;2.80
70050;BMP180;57391;51.306;22.680;2023-11-19T04:50:29;99934.80;;;2.80
70050;BMP180;57391;51.306;22.680;2023-11-19T04:53:16;99939.40;;;2.80
70050;BMP180;57391;51.306;22.680;2023-11-19T04:56:07;99944.20;;;2.80
70050;BMP180;57391;51.306;22.680;2023-11-19T04:58:53;99939.80;;;2.80
70050;BMP180;57391;51.306;22.680;2023-11-19T05:01:39;99936.20;;;2.80
70050;BMP180;57391;51.306;22.680;2023-11-19T05:04:24;99929.80;;;2.78
70050;BMP180;57391;51.306;22.680;2023-11-19T05:07:10;99921.00;;;2.76
70050;BMP180;57391;51.306;22.680;2023-11-19T05:09:56;99913.60;;;2.70
70050;BMP180;57391;51.306;22.680;2023-11-19T05:12:42;99902.60;;;2.70
70050;BMP180;57391;51.306;22.680;2023-11-19T05:15:28;99901.60;;;2.70
70050;BMP180;57391;51.306;22.680;2023-11-19T05:18:14;99903.60;;;2.70
70050;BMP180;57391;51.306;22.680;2023-11-19T05:21:00;99901.40;;;2.70
70050;BMP180;57391;51.306;22.680;2023-11-19T05:23:45;99902.60;;;2.70
70050;BMP180;57391;51.306;22.680;2023-11-19T05:26:32;99898.60;;;2.70
70050;BMP180;57391;51.306;22.680;2023-11-19T05:29:17;99893.20;;;2.70
70050;BMP180;57391;51.306;22.680;2023-11-19T05:32:03;99888.40;;;2.70
70050;BMP180;57391;51.306;22.680;2023-11-19T05:34:49;99884.60;;;2.70
70050;BMP180;57391;51.306;22.680;2023-11-19T05:37:34;99880.40;;;2.70
70050;BMP180;57391;51.306;22.680;2023-11-19T05:40:20;99873.60;;;2.70
70050;BMP180;57391;51.306;22.680;2023-11-19T05:43:06;99871.20;;;2.70
70050;BMP180;57391;51.306;22.680;2023-11-19T05:45:51;99869.60;;;2.70
70050;BMP180;57391;51.306;22.680;2023-11-19T05:48:37;99866.40;;;2.70
70050;BMP180;57391;51.306;22.680;2023-11-19T05:51:23;99865.80;;;2.70
70050;BMP180;57391;51.306;22.680;2023-11-19T05:54:10;99857.60;;;2.70
70050;BMP180;57391;51.306;22.680;2023-11-19T05:56:56;99847.20;;;2.60
70050;BMP180;57391;51.306;22.680;2023-11-19T05:59:42;99837.00;;;2.60
70050;BMP180;57391;51.306;22.680;2023-11-19T06:02:29;99834.80;;;2.60
70050;BMP180;57391;51.306;22.680;2023-11-19T06:05:14;99837.60;;;2.60
70050;BMP180;57391;51.306;22.680;2023-11-19T06:08:00;99839.60;;;2.60
70050;BMP180;57391;51.306;22.680;2023-11-19T06:10:46;99843.60;;;2.60
70050;BMP180;57391;51.306;22.680;2023-11-19T06:13:33;99847.40;;;2.60
70050;BMP180;57391;51.306;22.680;2023-11-19T06:27:21;99826.00;;;2.50
70050;BMP180;57391;51.306;22.680;2023-11-19T06:30:10;99829.60;;;2.50
70050;BMP180;57391;51.306;22.680;2023-11-19T06:32:55;99827.80;;;2.50
70050;BMP180;57391;51.306;22.680;2023-11-19T06:35:41;99828.40;;;2.50
70050;BMP180;57391;51.306;22.680;2023-11-19T06:38:27;99828.80;;;2.56
70050;BMP180;57391;51.306;22.680;2023-11-19T06:41:13;99838.40;;;2.60
70050;BMP180;57391;51.306;22.680;2023-11-19T06:43:58;99845.80;;;2.60
70050;BMP180;57391;51.306;22.680;2023-11-19T06:46:45;99851.80;;;2.62
70050;BMP180;57391;51.306;22.680;2023-11-19T06:49:31;99855.00;;;2.70
70050;BMP180;57391;51.306;22.680;2023-11-19T06:52:17;99849.20;;;2.70
70050;BMP180;57391;51.306;22.680;2023-11-19T06:55:04;99845.20;;;2.66
70050;BMP180;57391;51.306;22.680;2023-11-19T06:57:49;99845.00;;;2.70
70050;BMP180;57391;51.306;22.680;2023-11-19T07:00:35;99842.80;;;2.70
70050;BMP180;57391;51.306;22.680;2023-11-19T07:03:21;99851.20;;;2.70
70050;BMP180;57391;51.306;22.680;2023-11-19T07:06:07;99848.80;;;2.70
70050;BMP180;57391;51.306;22.680;2023-11-19T07:08:53;99848.20;;;2.70
70050;BMP180;57391;51.306;22.680;2023-11-19T07:11:41;99848.80;;;2.76
70050;BMP180;57391;51.306;22.680;2023-11-19T07:14:27;99839.60;;;2.80
70050;BMP180;57391;51.306;22.680;2023-11-19T07:17:14;99835.40;;;2.78
70050;BMP180;57391;51.306;22.680;2023-11-19T07:20:02;99835.80;;;2.80
70050;BMP180;57391;51.306;22.680;2023-11-19T07:22:48;99833.60;;;2.80
70050;BMP180;57391;51.306;22.680;2023-11-19T07:25:34;99826.00;;;2.80
70050;BMP180;57391;51.306;22.680;2023-11-19T07:28:21;99830.60;;;2.80
70050;BMP180;57391;51.306;22.680;2023-11-19T07:31:07;99829.20;;;2.84
70050;BMP180;57391;51.306;22.680;2023-11-19T07:33:55;99827.40;;;2.90
70050;BMP180;57391;51.306;22.680;2023-11-19T07:36:41;99823.40;;;2.90
70050;BMP180;57391;51.306;22.680;2023-11-19T07:39:27;99823.60;;;2.90
70050;BMP180;57391;51.306;22.680;2023-11-19T07:42:13;99816.80;;;2.94
70050;BMP180;57391;51.306;22.680;2023-11-19T07:44:58;99819.80;;;2.90
70050;BMP180;57391;51.306;22.680;2023-11-19T07:47:44;99815.40;;;2.90
70050;BMP180;57391;51.306;22.680;2023-11-19T07:50:30;99812.40;;;2.90
70050;BMP180;57391;51.306;22.680;2023-11-19T07:53:17;99816.00;;;2.90
70050;BMP180;57391;51.306;22.680;2023-11-19T07:56:03;99818.60;;;2.90
70050;BMP180;57391;51.306;22.680;2023-11-19T07:58:48;99816.20;;;2.88
70050;BMP180;57391;51.306;22.680;2023-11-19T08:01:34;99804.80;;;2.80
70050;BMP180;57391;51.306;22.680;2023-11-19T08:04:19;99803.80;;;2.80
70050;BMP180;57391;51.306;22.680;2023-11-19T08:07:05;99794.80;;;2.70
70050;BMP180;57391;51.306;22.680;2023-11-19T08:09:50;99784.40;;;2.70
70050;BMP180;57391;51.306;22.680;2023-11-19T08:12:36;99787.20;;;2.70
70050;BMP180;57391;51.306;22.680;2023-11-19T08:15:22;99782.60;;;2.70
70050;BMP180;57391;51.306;22.680;2023-11-19T08:18:08;99783.00;;;2.70
70050;BMP180;57391;51.306;22.680;2023-11-19T08:20:54;99779.80;;;2.70
70050;BMP180;57391;51.306;22.680;2023-11-19T08:23:42;99779.00;;;2.70
70050;BMP180;57391;51.306;22.680;2023-11-19T08:26:27;99779.00;;;2.70
70050;BMP180;57391;51.306;22.680;2023-11-19T08:29:13;99765.20;;;2.70
70050;BMP180;57391;51.306;22.680;2023-11-19T08:32:01;99760.20;;;2.70
70050;BMP180;57391;51.306;22.680;2023-11-19T08:34:49;99759.20;;;2.66
70050;BMP180;57391;51.306;22.680;2023-11-19T08:37:34;99759.80;;;2.70
70050;BMP180;57391;51.306;22.680;2023-11-19T08:40:22;99754.20;;;2.72
70050;BMP180;57391;51.306;22.680;2023-11-19T08:43:07;99757.40;;;2.70
70050;BMP180;57391;51.306;22.680;2023-11-19T08:45:53;99750.40;;;2.70
70050;BMP180;57391;51.306;22.680;2023-11-19T08:48:39;99746.60;;;2.70
70050;BMP180;57391;51.306;22.680;2023-11-19T08:51:25;99749.40;;;2.70
70050;BMP180;57391;51.306;22.680;2023-11-19T08:54:11;99745.60;;;2.72
70050;BMP180;57391;51.306;22.680;2023-11-19T08:56:58;99745.20;;;2.70
70050;BMP180;57391;51.306;22.680;2023-11-19T08:59:44;99734.00;;;2.70
70050;BMP180;57391;51.306;22.680;2023-11-19T09:02:31;99735.60;;;2.70
70050;BMP180;57391;51.306;22.680;2023-11-19T09:05:18;99737.80;;;2.70
70050;BMP180;57391;51.306;22.680;2023-11-19T09:08:04;99725.60;;;2.70
70050;BMP180;57391;51.306;22.680;2023-11-19T09:10:50;99720.00;;;2.70
70050;BMP180;57391;51.306;22.680;2023-11-19T09:13:37;99717.60;;;2.70
70050;BMP180;57391;51.306;22.680;2023-11-19T09:16:23;99712.80;;;2.70
70050;BMP180;57391;51.306;22.680;2023-11-19T09:19:09;99708.00;;;2.78
70050;BMP180;57391;51.306;22.680;2023-11-19T09:21:55;99705.20;;;2.80
70050;BMP180;57391;51.306;22.680;2023-11-19T09:24:41;99706.40;;;2.78
70050;BMP180;57391;51.306;22.680;2023-11-19T09:27:26;99705.60;;;2.70
70050;BMP180;57391;51.306;22.680;2023-11-19T09:30:13;99705.00;;;2.72
70050;BMP180;57391;51.306;22.680;2023-11-19T09:32:58;99700.20;;;2.70
70050;BMP180;57391;51.306;22.680;2023-11-19T09:35:44;99703.40;;;2.70
70050;BMP180;57391;51.306;22.680;2023-11-19T09:38:30;99696.40;;;2.80
70050;BMP180;57391;51.306;22.680;2023-11-19T09:41:17;99694.20;;;2.80
70050;BMP180;57391;51.306;22.680;2023-11-19T09:44:05;99685.80;;;2.80
70050;BMP180;57391;51.306;22.680;2023-11-19T09:46:52;99684.80;;;2.86
70050;BMP180;57391;51.306;22.680;2023-11-19T09:49:38;99677.60;;;2.90
70050;BMP180;57391;51.306;22.680;2023-11-19T09:52:24;99667.40;;;2.90
70050;BMP180;57391;51.306;22.680;2023-11-19T09:55:10;99656.60;;;2.90
70050;BMP180;57391;51.306;22.680;2023-11-19T09:57:57;99657.60;;;2.90
70050;BMP180;57391;51.306;22.680;2023-11-19T10:00:47;99651.80;;;3.00
70050;BMP180;57391;51.306;22.680;2023-11-19T10:03:35;99644.60;;;3.00
70050;BMP180;57391;51.306;22.680;2023-11-19T10:06:25;99643.60;;;2.92
70050;BMP180;57391;51.306;22.680;2023-11-19T10:09:12;99637.20;;;2.90
70050;BMP180;57391;51.306;22.680;2023-11-19T10:12:00;99633.20;;;2.80
70050;BMP180;57391;51.306;22.680;2023-11-19T10:14:48;99628.00;;;2.80
70050;BMP180;57391;51.306;22.680;2023-11-19T10:17:34;99625.80;;;2.78
70050;BMP180;57391;51.306;22.680;2023-11-19T10:31:19;99594.00;;;2.68
70050;BMP180;57391;51.306;22.680;2023-11-19T10:34:27;99582.40;;;2.70
70050;BMP180;57391;51.306;22.680;2023-11-19T10:37:29;99580.00;;;2.70
70050;BMP180;57391;51.306;22.680;2023-11-19T10:40:18;99580.80;;;2.70
70050;BMP180;57391;51.306;22.680;2023-11-19T10:43:04;99577.80;;;2.70
70050;BMP180;57391;51.306;22.680;2023-11-19T10:45:50;99570.00;;;2.70
70050;BMP180;57391;51.306;22.680;2023-11-19T10:48:37;99563.60;;;2.70
70050;BMP180;57391;51.306;22.680;2023-11-19T10:51:22;99562.20;;;2.70
70050;BMP180;57391;51.306;22.680;2023-11-19T10:54:10;99555.00;;;2.70
70050;BMP180;57391;51.306;22.680;2023-11-19T10:56:59;99545.60;;;2.80
70050;BMP180;57391;51.306;22.680;2023-11-19T10:59:47;99546.60;;;2.70
70050;BMP180;57391;51.306;22.680;2023-11-19T11:02:40;99548.20;;;2.70
70050;BMP180;57391;51.306;22.680;2023-11-19T11:05:32;99537.20;;;2.60
70050;BMP180;57391;51.306;22.680;2023-11-19T11:08:20;99534.40;;;2.60
70050;BMP180;57391;51.306;22.680;2023-11-19T11:11:08;99519.40;;;2.60
70050;BMP180;57391;51.306;22.680;2023-11-19T11:13:58;99525.60;;;2.60
70050;BMP180;57391;51.306;22.680;2023-11-19T11:16:48;99530.40;;;2.60
70050;BMP180;57391;51.306;22.680;2023-11-19T11:19:36;99514.20;;;2.68
70050;BMP180;57391;51.306;22.680;2023-11-19T11:22:24;99509.00;;;2.60
70050;BMP180;57391;51.306;22.680;2023-11-19T11:25:32;99502.40;;;2.60
70050;BMP180;57391;51.306;22.680;2023-11-19T11:28:45;99488.80;;;2.60
70050;BMP180;57391;51.306;22.680;2023-11-19T11:38:43;99478.80;;;2.60
70050;BMP180;57391;51.306;22.680;2023-11-19T11:41:29;99476.20;;;2.60
70050;BMP180;57391;51.306;22.680;2023-11-19T11:44:16;99471.80;;;2.60
70050;BMP180;57391;51.306;22.680;2023-11-19T11:47:02;99473.00;;;2.60
70050;BMP180;57391;51.306;22.680;2023-11-19T11:49:50;99469.20;;;2.62
70050;BMP180;57391;51.306;22.680;2023-11-19T11:58:36;99458.00;;;2.60
70050;BMP180;57391;51.306;22.680;2023-11-19T12:01:25;99460.40;;;2.60
70050;BMP180;57391;51.306;22.680;2023-11-19T12:04:14;99449.00;;;2.60
70050;BMP180;57391;51.306;22.680;2023-11-19T12:07:21;99450.20;;;2.60
70050;BMP180;57391;51.306;22.680;2023-11-19T12:10:09;99444.60;;;2.60
70050;BMP180;57391;51.306;22.680;2023-11-19T12:13:01;99437.20;;;2.50
70050;BMP180;57391;51.306;22.680;2023-11-19T12:18:43;99436.40;;;2.50
70050;BMP180;57391;51.306;22.680;2023-11-19T12:21:30;99423.00;;;2.52
70050;BMP180;57391;51.306;22.680;2023-11-19T12:24:16;99418.80;;;2.56
70050;BMP180;57391;51.306;22.680;2023-11-19T12:27:03;99417.00;;;2.50
70050;BMP180;57391;51.306;22.680;2023-11-19T12:29:49;99408.60;;;2.44
70050;BMP180;57391;51.306;22.680;2023-11-19T12:32:43;99400.80;;;2.40
70050;BMP180;57391;51.306;22.680;2023-11-19T12:35:29;99397.40;;;2.40
70050;BMP180;57391;51.306;22.680;2023-11-19T12:38:33;99389.60;;;2.30
70050;BMP180;57391;51.306;22.680;2023-11-19T12:41:19;99381.00;;;2.36
70050;BMP180;57391;51.306;22.680;2023-11-19T12:44:10;99371.80;;;2.40
70050;BMP180;57391;51.306;22.680;2023-11-19T12:47:04;99377.20;;;2.40
70050;BMP180;57391;51.306;22.680;2023-11-19T12:49:57;99373.40;;;2.32
70050;BMP180;57391;51.306;22.680;2023-11-19T12:52:43;99365.80;;;2.30
70050;BMP180;57391;51.306;22.680;2023-11-19T12:55:30;99360.40;;;2.40
70050;BMP180;57391;51.306;22.680;2023-11-19T12:58:35;99360.40;;;2.40
70050;BMP180;57391;51.306;22.680;2023-11-19T13:01:22;99357.40;;;2.40
70050;BMP180;57391;51.306;22.680;2023-11-19T13:04:18;99353.00;;;2.40
70050;BMP180;57391;51.306;22.680;2023-11-19T13:07:04;99345.60;;;2.40
70050;BMP180;57391;51.306;22.680;2023-11-19T13:09:50;99344.60;;;2.40
70050;BMP180;57391;51.306;22.680;2023-11-19T13:12:39;99348.00;;;2.40
70050;BMP180;57391;51.306;22.680;2023-11-19T13:15:25;99344.40;;;2.46
70050;BMP180;57391;51.306;22.680;2023-11-19T13:18:13;99338.20;;;2.50
70050;BMP180;57391;51.306;22.680;2023-11-19T13:21:00;99333.40;;;2.50
70050;BMP180;57391;51.306;22.680;2023-11-19T13:23:45;99325.20;;;2.48
70050;BMP180;57391;51.306;22.680;2023-11-19T13:26:31;99325.20;;;2.40
70050;BMP180;57391;51.306;22.680;2023-11-19T13:29:17;99327.80;;;2.40
70050;BMP180;57391;51.306;22.680;2023-11-19T13:32:02;99321.60;;;2.40
70050;BMP180;57391;51.306;22.680;2023-11-19T13:34:50;99321.40;;;2.40
70050;BMP180;57391;51.306;22.680;2023-11-19T13:37:36;99315.60;;;2.40
70050;BMP180;57391;51.306;22.680;2023-11-19T13:40:22;99315.80;;;2.40
70050;BMP180;57391;51.306;22.680;2023-11-19T13:43:10;99307.20;;;2.40
70050;BMP180;57391;51.306;22.680;2023-11-19T13:45:57;99304.00;;;2.34
70050;BMP180;57391;51.306;22.680;2023-11-19T13:48:46;99297.80;;;2.30
70050;BMP180;57391;51.306;22.680;2023-11-19T13:51:32;99290.20;;;2.30
70050;BMP180;57391;51.306;22.680;2023-11-19T13:54:18;99289.80;;;2.26
70050;BMP180;57391;51.306;22.680;2023-11-19T13:57:05;99286.00;;;2.22
70050;BMP180;57391;51.306;22.680;2023-11-19T13:59:50;99284.60;;;2.20
70050;BMP180;57391;51.306;22.680;2023-11-19T14:02:36;99284.80;;;2.20
70050;BMP180;57391;51.306;22.680;2023-11-19T14:05:22;99285.20;;;2.20
70050;BMP180;57391;51.306;22.680;2023-11-19T14:08:08;99281.80;;;2.20
70050;BMP180;57391;51.306;22.680;2023-11-19T14:10:57;99287.20;;;2.26
70050;BMP180;57391;51.306;22.680;2023-11-19T14:13:43;99281.60;;;2.30
70050;BMP180;57391;51.306;22.680;2023-11-19T14:16:28;99280.00;;;2.30
70050;BMP180;57391;51.306;22.680;2023-11-19T14:19:14;99277.60;;;2.30
70050;BMP180;57391;51.306;22.680;2023-11-19T14:22:00;99274.60;;;2.20
70050;BMP180;57391;51.306;22.680;2023-11-19T14:24:46;99274.60;;;2.22
70050;BMP180;57391;51.306;22.680;2023-11-19T14:27:31;99274.20;;;2.26
70050;BMP180;57391;51.306;22.680;2023-11-19T14:30:17;99271.00;;;2.30
70050;BMP180;57391;51.306;22.680;2023-11-19T14:33:03;99273.00;;;2.30
70050;BMP180;57391;51.306;22.680;2023-11-19T14:35:50;99269.40;;;2.30
70050;BMP180;57391;51.306;22.680;2023-11-19T14:38:37;99267.00;;;2.30
70050;BMP180;57391;51.306;22.680;2023-11-19T14:41:22;99264.20;;;2.30
70050;BMP180;57391;51.306;22.680;2023-11-19T14:44:08;99262.80;;;2.30
70050;BMP180;57391;51.306;22.680;2023-11-19T14:46:55;99255.20;;;2.30
70050;BMP180;57391;51.306;22.680;2023-11-19T14:49:41;99259.20;;;2.30
70050;BMP180;57391;51.306;22.680;2023-11-19T14:52:26;99259.60;;;2.30
70050;BMP180;57391;51.306;22.680;2023-11-19T14:55:12;99251.20;;;2.30
70050;BMP180;57391;51.306;22.680;2023-11-19T14:57:57;99252.60;;;2.30
70050;BMP180;57391;51.306;22.680;2023-11-19T15:00:43;99250.60;;;2.30
70050;BMP180;57391;51.306;22.680;2023-11-19T15:03:30;99243.20;;;2.30
70050;BMP180;57391;51.306;22.680;2023-11-19T15:06:16;99240.20;;;2.30
70050;BMP180;57391;51.306;22.680;2023-11-19T15:09:03;99234.40;;;2.30
70050;BMP180;57391;51.306;22.680;2023-11-19T15:11:49;99231.20;;;2.30
70050;BMP180;57391;51.306;22.680;2023-11-19T15:14:35;99224.20;;;2.30
70050;BMP180;57391;51.306;22.680;2023-11-19T15:17:21;99217.40;;;2.30
70050;BMP180;57391;51.306;22.680;2023-11-19T15:20:07;99224.20;;;2.30
70050;BMP180;57391;51.306;22.680;2023-11-19T15:22:53;99217.80;;;2.30
70050;BMP180;57391;51.306;22.680;2023-11-19T15:25:39;99218.00;;;2.30
70050;BMP180;57391;51.306;22.680;2023-11-19T15:28:25;99220.20;;;2.30
70050;BMP180;57391;51.306;22.680;2023-11-19T15:31:11;99216.40;;;2.30
70050;BMP180;57391;51.306;22.680;2023-11-19T15:33:58;99209.00;;;2.30
70050;BMP180;57391;51.306;22.680;2023-11-19T15:36:44;99209.60;;;2.26
70050;BMP180;57391;51.306;22.680;2023-11-19T15:39:31;99204.40;;;2.20
70050;BMP180;57391;51.306;22.680;2023-11-19T15:42:17;99199.80;;;2.20
70050;BMP180;57391;51.306;22.680;2023-11-19T15:45:04;99194.00;;;2.20
70050;BMP180;57391;51.306;22.680;2023-11-19T15:47:51;99191.80;;;2.20
70050;BMP180;57391;51.306;22.680;2023-11-19T15:50:37;99182.80;;;2.20
70050;BMP180;57391;51.306;22.680;2023-11-19T15:53:23;99178.00;;;2.20
70050;BMP180;57391;51.306;22.680;2023-11-19T15:56:10;99175.80;;;2.10
70050;BMP180;57391;51.306;22.680;2023-11-19T15:58:58;99168.00;;;2.10
70050;BMP180;57391;51.306;22.680;2023-11-19T16:01:44;99166.60;;;2.08
70050;BMP180;57391;51.306;22.680;2023-11-19T16:04:30;99164.40;;;2.00
70050;BMP180;57391;51.306;22.680;2023-11-19T16:07:16;99164.80;;;2.00
70050;BMP180;57391;51.306;22.680;2023-11-19T16:10:03;99158.60;;;2.00
70050;BMP180;57391;51.306;22.680;2023-11-19T16:12:50;99154.20;;;2.00
70050;BMP180;57391;51.306;22.680;2023-11-19T16:15:36;99147.20;;;2.00
70050;BMP180;57391;51.306;22.680;2023-11-19T16:18:22;99142.20;;;2.00
70050;BMP180;57391;51.306;22.680;2023-11-19T16:21:07;99146.60;;;2.00
70050;BMP180;57391;51.306;22.680;2023-11-19T16:23:54;99143.00;;;2.00
70050;BMP180;57391;51.306;22.680;2023-11-19T16:26:40;99137.00;;;2.00
70050;BMP180;57391;51.306;22.680;2023-11-19T16:29:25;99131.20;;;2.00
70050;BMP180;57391;51.306;22.680;2023-11-19T16:32:11;99129.20;;;2.00
70050;BMP180;57391;51.306;22.680;2023-11-19T16:34:57;99130.40;;;2.00
70050;BMP180;57391;51.306;22.680;2023-11-19T16:37:43;99128.40;;;1.94
70050;BMP180;57391;51.306;22.680;2023-11-19T16:40:29;99126.40;;;1.94